Terminal Aerodrome Forecast
Issued by NWS Flagstaff, AZ

Home | Current Version | Previous Version | Text Only | Print | Product List | Glossary On
Versions: 1 2 3 4 5 6 7 8 9 10 11 12 13 14 15 16 17
277
FTUS45 KFGZ 231120
TAFFLG
TAF
KFLG 231120Z 2312/2412 VRB03KT P6SM SCT100
     FM231800 23008G16KT P6SM BKN080
      TEMPO 2318/2322 TSRA BKN060CB
     FM240200 VRB03KT P6SM SCT100=

USA.gov is the U.S. government's official web portal to all federal, state and local government web resources and services.